sensor_id;sensor_type;location;lat;lon;timestamp;P1;durP1;ratioP1;P2;durP2;ratioP2
23768;SDS011;12064;50.890;5.424;2023-02-28T00:02:19;2.60;;;2.30;;
23768;SDS011;12064;50.890;5.424;2023-02-28T00:11:11;2.57;;;2.00;;
23768;SDS011;12064;50.890;5.424;2023-02-28T00:20:03;4.25;;;2.40;;
23768;SDS011;12064;50.890;5.424;2023-02-28T00:29:01;3.10;;;2.50;;
23768;SDS011;12064;50.890;5.424;2023-02-28T00:37:52;3.10;;;2.40;;
23768;SDS011;12064;50.890;5.424;2023-02-28T00:46:43;2.43;;;2.23;;
23768;SDS011;12064;50.890;5.424;2023-02-28T00:55:33;2.60;;;2.23;;
23768;SDS011;12064;50.890;5.424;2023-02-28T01:04:25;3.27;;;2.40;;
23768;SDS011;12064;50.890;5.424;2023-02-28T01:13:16;3.00;;;2.28;;
23768;SDS011;12064;50.890;5.424;2023-02-28T01:22:09;2.78;;;2.25;;
23768;SDS011;12064;50.890;5.424;2023-02-28T01:31:00;2.97;;;2.23;;
23768;SDS011;12064;50.890;5.424;2023-02-28T01:39:51;2.53;;;2.13;;
23768;SDS011;12064;50.890;5.424;2023-02-28T01:49:01;2.58;;;2.20;;
23768;SDS011;12064;50.890;5.424;2023-02-28T01:58:04;2.23;;;2.03;;
23768;SDS011;12064;50.890;5.424;2023-02-28T02:06:57;3.20;;;2.28;;
23768;SDS011;12064;50.890;5.424;2023-02-28T02:15:53;2.35;;;2.10;;
23768;SDS011;12064;50.890;5.424;2023-02-28T02:34:21;2.60;;;2.22;;
23768;SDS011;12064;50.890;5.424;2023-02-28T02:43:19;2.13;;;1.88;;
23768;SDS011;12064;50.890;5.424;2023-02-28T02:52:35;3.63;;;2.00;;
23768;SDS011;12064;50.890;5.424;2023-02-28T03:01:31;2.15;;;1.85;;
23768;SDS011;12064;50.890;5.424;2023-02-28T03:28:39;1.70;;;1.58;;
23768;SDS011;12064;50.890;5.424;2023-02-28T03:37:38;2.25;;;1.80;;
23768;SDS011;12064;50.890;5.424;2023-02-28T03:46:34;2.90;;;1.95;;
23768;SDS011;12064;50.890;5.424;2023-02-28T03:55:30;2.35;;;1.80;;
23768;SDS011;12064;50.890;5.424;2023-02-28T04:04:24;2.08;;;1.77;;
23768;SDS011;12064;50.890;5.424;2023-02-28T04:13:15;2.00;;;1.80;;
23768;SDS011;12064;50.890;5.424;2023-02-28T04:31:02;2.03;;;1.80;;
23768;SDS011;12064;50.890;5.424;2023-02-28T04:39:54;1.70;;;1.60;;
23768;SDS011;12064;50.890;5.424;2023-02-28T04:48:47;2.15;;;1.75;;
23768;SDS011;12064;50.890;5.424;2023-02-28T04:57:37;1.73;;;1.63;;
23768;SDS011;12064;50.890;5.424;2023-02-28T05:06:28;1.70;;;1.60;;
23768;SDS011;12064;50.890;5.424;2023-02-28T05:15:21;2.00;;;1.73;;
23768;SDS011;12064;50.890;5.424;2023-02-28T05:24:12;1.83;;;1.52;;
23768;SDS011;12064;50.890;5.424;2023-02-28T05:33:03;2.23;;;1.87;;
23768;SDS011;12064;50.890;5.424;2023-02-28T05:41:56;2.22;;;1.65;;
23768;SDS011;12064;50.890;5.424;2023-02-28T05:50:47;1.60;;;1.50;;
23768;SDS011;12064;50.890;5.424;2023-02-28T05:59:38;1.70;;;1.60;;
23768;SDS011;12064;50.890;5.424;2023-02-28T06:08:32;1.70;;;1.60;;
23768;SDS011;12064;50.890;5.424;2023-02-28T06:17:22;1.67;;;1.57;;
23768;SDS011;12064;50.890;5.424;2023-02-28T06:26:16;1.88;;;1.70;;
23768;SDS011;12064;50.890;5.424;2023-02-28T06:35:09;2.22;;;1.80;;
23768;SDS011;12064;50.890;5.424;2023-02-28T06:53:14;2.35;;;2.00;;
23768;SDS011;12064;50.890;5.424;2023-02-28T07:02:04;2.57;;;2.03;;
23768;SDS011;12064;50.890;5.424;2023-02-28T07:10:57;3.88;;;1.85;;
23768;SDS011;12064;50.890;5.424;2023-02-28T07:19:50;2.05;;;1.85;;
23768;SDS011;12064;50.890;5.424;2023-02-28T07:28:41;2.17;;;1.70;;
23768;SDS011;12064;50.890;5.424;2023-02-28T07:37:37;2.00;;;1.75;;
23768;SDS011;12064;50.890;5.424;2023-02-28T07:46:28;2.30;;;1.70;;
23768;SDS011;12064;50.890;5.424;2023-02-28T07:55:25;1.90;;;1.70;;
23768;SDS011;12064;50.890;5.424;2023-02-28T08:04:18;1.53;;;1.43;;
23768;SDS011;12064;50.890;5.424;2023-02-28T08:13:09;2.33;;;1.85;;
23768;SDS011;12064;50.890;5.424;2023-02-28T08:22:00;1.90;;;1.70;;
23768;SDS011;12064;50.890;5.424;2023-02-28T08:30:51;2.63;;;1.80;;
23768;SDS011;12064;50.890;5.424;2023-02-28T08:39:42;4.22;;;2.10;;
23768;SDS011;12064;50.890;5.424;2023-02-28T08:48:34;3.13;;;2.00;;
23768;SDS011;12064;50.890;5.424;2023-02-28T08:57:27;2.65;;;2.00;;
23768;SDS011;12064;50.890;5.424;2023-02-28T09:06:20;3.37;;;2.20;;
23768;SDS011;12064;50.890;5.424;2023-02-28T09:15:12;4.97;;;1.90;;
23768;SDS011;12064;50.890;5.424;2023-02-28T09:24:06;2.70;;;2.13;;
23768;SDS011;12064;50.890;5.424;2023-02-28T09:33:01;1.80;;;1.50;;
23768;SDS011;12064;50.890;5.424;2023-02-28T09:41:52;1.70;;;1.40;;
23768;SDS011;12064;50.890;5.424;2023-02-28T09:50:46;2.40;;;1.60;;
23768;SDS011;12064;50.890;5.424;2023-02-28T09:59:52;2.05;;;1.60;;
23768;SDS011;12064;50.890;5.424;2023-02-28T10:08:51;2.28;;;1.55;;
23768;SDS011;12064;50.890;5.424;2023-02-28T10:17:49;1.55;;;1.38;;
23768;SDS011;12064;50.890;5.424;2023-02-28T10:26:45;2.97;;;1.50;;
23768;SDS011;12064;50.890;5.424;2023-02-28T10:35:37;2.40;;;1.30;;
23768;SDS011;12064;50.890;5.424;2023-02-28T10:44:27;1.73;;;1.57;;
23768;SDS011;12064;50.890;5.424;2023-02-28T11:02:29;1.27;;;1.17;;
23768;SDS011;12064;50.890;5.424;2023-02-28T11:11:26;1.67;;;1.40;;
23768;SDS011;12064;50.890;5.424;2023-02-28T11:20:21;1.45;;;1.27;;
23768;SDS011;12064;50.890;5.424;2023-02-28T11:29:19;1.40;;;1.20;;
23768;SDS011;12064;50.890;5.424;2023-02-28T11:38:12;2.17;;;1.20;;
23768;SDS011;12064;50.890;5.424;2023-02-28T11:56:49;1.42;;;1.10;;
23768;SDS011;12064;50.890;5.424;2023-02-28T12:05:27;2.70;;;1.40;;
23768;SDS011;12064;50.890;5.424;2023-02-28T12:32:41;1.23;;;1.10;;
23768;SDS011;12064;50.890;5.424;2023-02-28T12:41:42;1.45;;;1.10;;
23768;SDS011;12064;50.890;5.424;2023-02-28T12:50:37;1.20;;;1.10;;
23768;SDS011;12064;50.890;5.424;2023-02-28T12:59:33;1.45;;;1.15;;
23768;SDS011;12064;50.890;5.424;2023-02-28T13:17:36;2.88;;;1.10;;
23768;SDS011;12064;50.890;5.424;2023-02-28T13:35:35;1.10;;;0.90;;
23768;SDS011;12064;50.890;5.424;2023-02-28T13:44:27;2.13;;;1.23;;
23768;SDS011;12064;50.890;5.424;2023-02-28T13:53:31;1.35;;;1.10;;
23768;SDS011;12064;50.890;5.424;2023-02-28T14:02:38;1.58;;;1.10;;
23768;SDS011;12064;50.890;5.424;2023-02-28T14:12:50;1.30;;;1.10;;
23768;SDS011;12064;50.890;5.424;2023-02-28T14:21:29;1.13;;;1.02;;
23768;SDS011;12064;50.890;5.424;2023-02-28T14:39:33;1.00;;;0.90;;
23768;SDS011;12064;50.890;5.424;2023-02-28T14:48:28;1.17;;;1.00;;
23768;SDS011;12064;50.890;5.424;2023-02-28T14:57:29;1.30;;;1.20;;
23768;SDS011;12064;50.890;5.424;2023-02-28T15:06:21;1.80;;;1.17;;
23768;SDS011;12064;50.890;5.424;2023-02-28T15:15:16;1.20;;;1.10;;
23768;SDS011;12064;50.890;5.424;2023-02-28T15:33:18;1.02;;;1.00;;
23768;SDS011;12064;50.890;5.424;2023-02-28T15:42:18;1.23;;;1.10;;
23768;SDS011;12064;50.890;5.424;2023-02-28T15:51:21;1.00;;;1.00;;
23768;SDS011;12064;50.890;5.424;2023-02-28T16:00:18;1.10;;;1.00;;
23768;SDS011;12064;50.890;5.424;2023-02-28T16:09:15;1.50;;;0.95;;
23768;SDS011;12064;50.890;5.424;2023-02-28T16:18:07;0.95;;;0.95;;
23768;SDS011;12064;50.890;5.424;2023-02-28T16:27:01;1.65;;;1.10;;
23768;SDS011;12064;50.890;5.424;2023-02-28T16:35:52;1.05;;;0.90;;
23768;SDS011;12064;50.890;5.424;2023-02-28T16:44:42;1.00;;;0.90;;
23768;SDS011;12064;50.890;5.424;2023-02-28T16:53:33;1.13;;;1.02;;
23768;SDS011;12064;50.890;5.424;2023-02-28T17:02:24;1.70;;;1.00;;
23768;SDS011;12064;50.890;5.424;2023-02-28T17:11:15;1.05;;;0.95;;
23768;SDS011;12064;50.890;5.424;2023-02-28T17:39:19;1.35;;;1.10;;
23768;SDS011;12064;50.890;5.424;2023-02-28T17:48:14;1.20;;;1.10;;
23768;SDS011;12064;50.890;5.424;2023-02-28T17:57:04;1.35;;;0.90;;
23768;SDS011;12064;50.890;5.424;2023-02-28T18:05:55;1.70;;;1.00;;
23768;SDS011;12064;50.890;5.424;2023-02-28T18:14:49;1.00;;;0.85;;
23768;SDS011;12064;50.890;5.424;2023-02-28T18:23:40;1.42;;;0.93;;
23768;SDS011;12064;50.890;5.424;2023-02-28T18:32:36;1.02;;;0.93;;
23768;SDS011;12064;50.890;5.424;2023-02-28T18:41:29;1.52;;;1.10;;
23768;SDS011;12064;50.890;5.424;2023-02-28T18:50:23;1.40;;;1.00;;
23768;SDS011;12064;50.890;5.424;2023-02-28T18:59:13;1.50;;;1.30;;
23768;SDS011;12064;50.890;5.424;2023-02-28T19:08:04;2.22;;;1.10;;
23768;SDS011;12064;50.890;5.424;2023-02-28T19:16:57;2.55;;;1.20;;
23768;SDS011;12064;50.890;5.424;2023-02-28T19:25:48;1.83;;;1.13;;
23768;SDS011;12064;50.890;5.424;2023-02-28T19:34:39;2.38;;;1.10;;
23768;SDS011;12064;50.890;5.424;2023-02-28T19:43:29;3.03;;;1.07;;
23768;SDS011;12064;50.890;5.424;2023-02-28T19:52:20;2.42;;;1.00;;
23768;SDS011;12064;50.890;5.424;2023-02-28T20:01:15;1.20;;;1.10;;
23768;SDS011;12064;50.890;5.424;2023-02-28T20:10:08;5.72;;;1.10;;
23768;SDS011;12064;50.890;5.424;2023-02-28T20:19:03;1.70;;;0.90;;
23768;SDS011;12064;50.890;5.424;2023-02-28T20:27:54;3.53;;;1.20;;
23768;SDS011;12064;50.890;5.424;2023-02-28T20:36:44;3.22;;;1.17;;
23768;SDS011;12064;50.890;5.424;2023-02-28T20:45:36;2.25;;;1.23;;
23768;SDS011;12064;50.890;5.424;2023-02-28T20:54:26;1.88;;;1.10;;
23768;SDS011;12064;50.890;5.424;2023-02-28T21:03:21;1.30;;;1.20;;
23768;SDS011;12064;50.890;5.424;2023-02-28T21:12:14;4.50;;;1.30;;
23768;SDS011;12064;50.890;5.424;2023-02-28T21:21:07;3.85;;;1.70;;
23768;SDS011;12064;50.890;5.424;2023-02-28T21:30:01;3.60;;;1.90;;
23768;SDS011;12064;50.890;5.424;2023-02-28T21:38:56;5.28;;;1.83;;
23768;SDS011;12064;50.890;5.424;2023-02-28T21:47:48;3.90;;;1.70;;
23768;SDS011;12064;50.890;5.424;2023-02-28T21:56:39;2.43;;;1.60;;
23768;SDS011;12064;50.890;5.424;2023-02-28T22:05:30;3.07;;;1.60;;
23768;SDS011;12064;50.890;5.424;2023-02-28T22:14:20;2.47;;;1.30;;
23768;SDS011;12064;50.890;5.424;2023-02-28T22:23:12;1.60;;;1.30;;
23768;SDS011;12064;50.890;5.424;2023-02-28T22:32:03;1.63;;;1.38;;
23768;SDS011;12064;50.890;5.424;2023-02-28T22:40:57;2.80;;;1.60;;
23768;SDS011;12064;50.890;5.424;2023-02-28T22:49:50;2.03;;;1.60;;
23768;SDS011;12064;50.890;5.424;2023-02-28T22:58:47;1.83;;;1.23;;
23768;SDS011;12064;50.890;5.424;2023-02-28T23:07:42;1.80;;;1.40;;
23768;SDS011;12064;50.890;5.424;2023-02-28T23:16:35;2.60;;;1.40;;
23768;SDS011;12064;50.890;5.424;2023-02-28T23:25:27;1.38;;;1.15;;
23768;SDS011;12064;50.890;5.424;2023-02-28T23:34:18;2.13;;;1.10;;
23768;SDS011;12064;50.890;5.424;2023-02-28T23:43:17;1.75;;;1.30;;
23768;SDS011;12064;50.890;5.424;2023-02-28T23:52:08;1.55;;;1.20;;
